createdAt,value
2023-04-11T00:05:09.441Z,45.12
2023-04-11T00:07:36.276Z,46.00
2023-04-11T00:10:03.196Z,45.48
2023-04-11T00:12:30.033Z,45.84
2023-04-11T00:14:56.852Z,46.88
2023-04-11T00:17:58.893Z,47.08
2023-04-11T00:20:25.636Z,47.66
2023-04-11T00:22:52.365Z,48.34
2023-04-11T00:25:19.167Z,48.65
2023-04-11T00:27:45.901Z,49.04
2023-04-11T00:30:12.831Z,48.88
2023-04-11T00:32:40.889Z,48.94
2023-04-11T00:35:08.126Z,48.79
2023-04-11T00:37:34.919Z,49.21
2023-04-11T00:40:02.213Z,48.76
2023-04-11T00:42:29.010Z,48.94
2023-04-11T00:44:56.357Z,49.51
2023-04-11T00:47:23.133Z,48.91
2023-04-11T00:49:49.960Z,48.46
2023-04-11T00:52:16.776Z,48.63
2023-04-11T00:54:43.530Z,48.39
2023-04-11T00:57:10.694Z,47.84
2023-04-11T00:59:38.702Z,48.42
2023-04-11T01:02:05.542Z,48.64
2023-04-11T01:04:32.426Z,48.33
2023-04-11T01:07:04.458Z,48.64
2023-04-11T01:09:32.181Z,47.92
2023-04-11T01:11:59.743Z,48.67
2023-04-11T01:18:20.190Z,49.24
2023-04-11T01:20:47.387Z,50.31
2023-04-11T01:23:14.599Z,50.66
2023-04-11T01:29:35.317Z,51.67
2023-04-11T01:32:02.218Z,51.66
2023-04-11T01:34:29.102Z,51.88
2023-04-11T01:36:55.864Z,52.18
2023-04-11T01:39:23.155Z,52.39
2023-04-11T01:41:50.965Z,52.21
2023-04-11T01:44:18.006Z,52.45
2023-04-11T01:46:45.476Z,52.12
2023-04-11T01:49:14.320Z,52.05
2023-04-11T01:51:41.831Z,52.52
2023-04-11T01:54:09.586Z,52.50
2023-04-11T01:56:36.372Z,53.08
2023-04-11T01:59:03.151Z,52.80
2023-04-11T02:01:30.310Z,53.61
2023-04-11T02:03:57.223Z,53.44
2023-04-11T02:06:24.008Z,53.81
2023-04-11T02:08:50.948Z,54.00
2023-04-11T02:11:17.701Z,54.06
2023-04-11T02:13:44.509Z,54.24
2023-04-11T02:20:05.306Z,54.89
2023-04-11T02:22:32.127Z,57.23
2023-04-11T02:24:58.928Z,57.51
2023-04-11T02:27:25.824Z,58.46
2023-04-11T02:29:52.590Z,58.19
2023-04-11T02:32:19.484Z,59.16
2023-04-11T02:34:46.283Z,59.83
2023-04-11T02:37:13.363Z,59.35
2023-04-11T02:39:40.262Z,58.79
2023-04-11T02:42:07.086Z,59.53
2023-04-11T02:44:33.853Z,58.83
2023-04-11T02:47:00.724Z,59.26
2023-04-11T02:49:27.540Z,59.00
2023-04-11T02:51:54.693Z,59.97
2023-04-11T02:54:21.500Z,60.64
2023-04-11T02:56:48.344Z,60.74
2023-04-11T02:59:15.157Z,61.18
2023-04-11T03:01:42.101Z,62.13
2023-04-11T03:04:09.057Z,63.89
2023-04-11T03:06:35.823Z,66.30
2023-04-11T03:09:02.893Z,68.13
2023-04-11T03:11:29.766Z,70.19
2023-04-11T03:13:56.877Z,72.44
2023-04-11T03:16:23.675Z,74.11
2023-04-11T03:18:50.699Z,74.05
2023-04-11T03:21:18.859Z,76.07
2023-04-11T03:23:46.014Z,75.36
2023-04-11T03:26:12.982Z,73.98
2023-04-11T03:28:44.275Z,74.98
2023-04-11T03:31:11.864Z,74.88
2023-04-11T03:33:38.850Z,74.33
2023-04-11T03:36:06.001Z,73.42
2023-04-11T03:38:33.305Z,74.46
2023-04-11T03:41:00.157Z,74.50
2023-04-11T03:43:28.270Z,74.63
2023-04-11T03:45:55.252Z,75.99
2023-04-11T03:48:22.160Z,76.84
2023-04-11T03:54:47.075Z,76.55
2023-04-11T03:57:14.477Z,76.03
2023-04-11T03:59:41.229Z,76.11
2023-04-11T04:02:09.240Z,75.26
2023-04-11T04:04:37.820Z,74.49
2023-04-11T04:07:05.074Z,74.47
2023-04-11T04:09:31.949Z,74.85
2023-04-11T04:11:58.737Z,75.13
2023-04-11T04:14:25.496Z,75.08
2023-04-11T04:16:52.495Z,76.18
2023-04-11T04:19:21.226Z,76.43
2023-04-11T04:21:49.457Z,76.83
2023-04-11T04:24:16.309Z,77.27
2023-04-11T04:26:43.093Z,77.22
2023-04-11T04:29:09.867Z,77.07
2023-04-11T04:31:39.862Z,77.77
2023-04-11T04:34:07.216Z,76.94
2023-04-11T04:36:34.738Z,77.46
2023-04-11T04:39:01.929Z,78.40
2023-04-11T04:42:10.928Z,77.39
2023-04-11T04:44:38.166Z,78.55
2023-04-11T04:47:04.869Z,78.99
2023-04-11T04:49:32.413Z,80.31
2023-04-11T04:52:02.220Z,80.78
2023-04-11T04:58:22.846Z,81.45
2023-04-11T05:00:51.439Z,81.89
2023-04-11T05:03:18.503Z,81.54
2023-04-11T05:09:40.844Z,82.74
2023-04-11T05:12:08.188Z,82.06
2023-04-11T05:14:35.031Z,82.42
2023-04-11T05:17:03.030Z,82.60
2023-04-11T05:19:31.502Z,82.23
2023-04-11T05:21:58.295Z,82.54
2023-04-11T05:24:25.092Z,84.56
2023-04-11T05:26:52.082Z,84.90
2023-04-11T05:29:18.859Z,85.36
2023-04-11T05:31:45.597Z,84.99
2023-04-11T05:34:12.552Z,84.63
2023-04-11T05:36:42.267Z,85.70
2023-04-11T05:39:08.995Z,86.04
2023-04-11T05:41:35.729Z,85.87
2023-04-11T05:44:03.918Z,86.63
2023-04-11T05:46:32.843Z,87.11
2023-04-11T05:49:00.147Z,87.76
2023-04-11T05:51:26.914Z,86.35
2023-04-11T05:53:53.827Z,86.40
2023-04-11T05:56:20.787Z,85.27
2023-04-11T05:58:47.471Z,85.11
2023-04-11T06:01:14.275Z,84.35
2023-04-11T06:03:41.132Z,83.87
2023-04-11T06:06:09.412Z,81.24
2023-04-11T06:08:36.143Z,80.74
2023-04-11T06:11:02.838Z,80.63
2023-04-11T06:13:29.577Z,80.36
2023-04-11T06:15:56.393Z,80.14
2023-04-11T06:18:23.142Z,79.75
2023-04-11T06:20:49.862Z,78.67
2023-04-11T06:23:16.596Z,77.96
2023-04-11T06:25:43.509Z,77.80
2023-04-11T06:28:11.669Z,78.31
2023-04-11T06:30:38.475Z,79.23
2023-04-11T06:33:05.277Z,77.21
2023-04-11T06:35:32.070Z,76.18
2023-04-11T06:37:59.099Z,75.57
2023-04-11T06:40:27.189Z,76.11
2023-04-11T06:42:53.878Z,75.40
2023-04-11T06:45:20.623Z,77.39
2023-04-11T06:47:47.507Z,78.64
2023-04-11T06:50:15.358Z,79.11
2023-04-11T06:52:43.300Z,79.16
2023-04-11T06:55:10.049Z,79.46
2023-04-11T06:57:38.004Z,79.46
2023-04-11T07:00:06.819Z,79.09
2023-04-11T07:02:34.175Z,79.44
2023-04-11T07:05:02.022Z,80.06
2023-04-11T07:07:28.974Z,79.67
2023-04-11T07:09:56.518Z,79.07
2023-04-11T07:12:23.241Z,80.34
2023-04-11T07:14:49.942Z,81.68
2023-04-11T07:17:16.718Z,81.47
2023-04-11T07:19:43.467Z,80.96
2023-04-11T07:22:10.398Z,80.23
2023-04-11T07:24:37.130Z,82.13
2023-04-11T07:27:03.871Z,81.12
2023-04-11T07:29:30.753Z,80.65
2023-04-11T07:31:58.022Z,81.36
2023-04-11T07:34:25.089Z,82.23
2023-04-11T07:36:52.304Z,81.88
2023-04-11T07:39:19.230Z,81.81
2023-04-11T07:41:46.818Z,81.76
2023-04-11T07:44:13.583Z,80.71
2023-04-11T07:46:40.713Z,80.68
2023-04-11T07:49:07.442Z,80.16
2023-04-11T07:51:34.131Z,79.50
2023-04-11T07:54:01.357Z,80.00
2023-04-11T07:56:28.218Z,80.00
2023-04-11T07:58:55.956Z,78.39
2023-04-11T08:01:26.425Z,78.68
2023-04-11T08:03:54.013Z,78.59
2023-04-11T08:06:20.820Z,76.45
2023-04-11T08:08:47.853Z,78.20
2023-04-11T08:11:15.029Z,76.21
2023-04-11T08:13:43.018Z,74.10
2023-04-11T08:16:11.208Z,73.60
2023-04-11T08:18:38.075Z,73.84
2023-04-11T08:21:05.519Z,74.08
2023-04-11T08:23:32.655Z,74.30
2023-04-11T08:25:59.442Z,74.43
2023-04-11T08:28:27.354Z,73.75
2023-04-11T08:30:54.528Z,72.72
2023-04-11T08:33:24.189Z,73.82
2023-04-11T08:35:50.940Z,74.59
2023-04-11T08:38:17.717Z,74.47
2023-04-11T08:40:44.404Z,74.99
2023-04-11T08:43:11.096Z,74.96
2023-04-11T08:45:41.255Z,74.84
2023-04-11T08:48:08.802Z,73.38
2023-04-11T08:50:35.711Z,72.52
2023-04-11T08:53:02.705Z,72.65
2023-04-11T08:55:30.926Z,74.60
2023-04-11T08:57:57.766Z,74.53
2023-04-11T09:00:24.529Z,74.53
2023-04-11T09:03:01.386Z,74.81
2023-04-11T09:05:32.337Z,72.97
2023-04-11T09:07:59.990Z,71.73
2023-04-11T09:10:28.625Z,71.23
2023-04-11T09:12:56.908Z,70.42
2023-04-11T09:15:27.601Z,71.55
2023-04-11T09:17:54.815Z,70.78
2023-04-11T09:20:25.916Z,71.41
2023-04-11T09:22:55.600Z,70.30
2023-04-11T09:25:22.979Z,69.52
2023-04-11T09:27:50.052Z,69.80
2023-04-11T09:30:24.338Z,69.22
2023-04-11T09:32:51.523Z,70.70
2023-04-11T09:35:22.772Z,70.22
2023-04-11T09:37:57.137Z,71.14
2023-04-11T09:40:28.104Z,70.75
2023-04-11T09:42:59.672Z,69.63
2023-04-11T09:45:51.809Z,69.72
2023-04-11T09:48:22.136Z,69.79
2023-04-11T09:50:53.596Z,68.80
2023-04-11T09:53:20.444Z,68.53
2023-04-11T09:55:47.258Z,68.21
2023-04-11T09:58:13.999Z,68.61
2023-04-11T10:00:41.091Z,69.33
2023-04-11T10:03:07.928Z,68.72
2023-04-11T10:05:36.324Z,68.44
2023-04-11T10:08:07.613Z,68.19
2023-04-11T10:10:34.991Z,67.94
2023-04-11T10:13:02.250Z,63.85
2023-04-11T10:15:28.973Z,65.10
2023-04-11T10:18:11.781Z,64.93
2023-04-11T10:20:45.514Z,66.47
2023-04-11T10:23:13.333Z,66.70
2023-04-11T10:25:50.555Z,65.28
2023-04-11T10:28:30.804Z,66.40
2023-04-11T10:31:10.884Z,66.45
2023-04-11T10:33:37.597Z,65.56
2023-04-11T10:36:11.724Z,68.20
2023-04-11T10:38:41.759Z,67.87
2023-04-11T10:41:24.843Z,67.77
2023-04-11T10:43:51.715Z,67.48
2023-04-11T10:46:22.482Z,67.79
2023-04-11T10:49:05.158Z,66.87
2023-04-11T10:51:33.833Z,66.08
2023-04-11T10:54:01.050Z,64.31
2023-04-11T10:56:40.526Z,64.73
2023-04-11T10:59:07.378Z,63.19
2023-04-11T11:04:04.439Z,64.03
2023-04-11T11:09:01.787Z,62.70
2023-04-11T11:11:28.637Z,63.93
2023-04-11T11:13:55.695Z,65.13
2023-04-11T11:16:24.498Z,64.78
2023-04-11T11:18:53.163Z,66.21
2023-04-11T11:21:27.813Z,66.17
2023-04-11T11:23:59.717Z,64.78
2023-04-11T11:29:56.986Z,66.87
2023-04-11T11:32:27.137Z,67.75
2023-04-11T11:34:53.987Z,65.65
2023-04-11T11:37:21.091Z,65.55
2023-04-11T11:39:49.297Z,65.38
2023-04-11T11:42:16.129Z,64.97
2023-04-11T11:44:42.833Z,64.16
2023-04-11T11:47:10.478Z,64.33
2023-04-11T11:49:50.393Z,64.12
2023-04-11T11:52:39.125Z,65.85
2023-04-11T11:57:54.344Z,66.30
2023-04-11T12:00:24.674Z,65.31
2023-04-11T12:02:55.581Z,64.89
2023-04-11T12:05:24.426Z,65.28
2023-04-11T12:07:53.919Z,64.03
2023-04-11T12:10:22.045Z,64.60
2023-04-11T12:12:53.775Z,63.66
2023-04-11T12:15:38.449Z,65.09
2023-04-11T12:18:05.550Z,65.05
2023-04-11T12:20:33.393Z,65.41
2023-04-11T12:23:00.564Z,65.26
2023-04-11T12:25:27.797Z,63.59
2023-04-11T12:27:57.106Z,64.60
2023-04-11T12:34:16.643Z,64.90
2023-04-11T12:36:43.791Z,64.48
2023-04-11T12:39:14.141Z,64.35
2023-04-11T12:42:02.743Z,65.35
2023-04-11T12:44:29.915Z,65.59
2023-04-11T12:46:57.885Z,65.29
2023-04-11T12:49:24.682Z,65.52
2023-04-11T12:51:51.371Z,65.29
2023-04-11T12:54:18.075Z,65.13
2023-04-11T12:56:45.052Z,64.29
2023-04-11T12:59:12.238Z,63.01
2023-04-11T13:01:39.499Z,64.20
2023-04-11T13:04:06.342Z,63.13
2023-04-11T13:06:33.676Z,63.84
2023-04-11T13:09:00.870Z,61.79
2023-04-11T13:11:29.435Z,61.33
2023-04-11T13:13:58.966Z,61.10
2023-04-11T13:20:19.664Z,61.28
2023-04-11T13:22:46.563Z,61.65
2023-04-11T13:25:13.429Z,61.82
2023-04-11T13:27:41.654Z,61.05
2023-04-11T13:30:10.109Z,62.37
2023-04-11T13:32:36.896Z,61.89
2023-04-11T13:35:07.279Z,62.09
2023-04-11T13:37:34.013Z,61.62
2023-04-11T13:40:00.778Z,61.55
2023-04-11T13:42:27.525Z,60.97
2023-04-11T13:44:54.206Z,60.60
2023-04-11T13:47:21.063Z,61.76
2023-04-11T13:49:47.813Z,62.97
2023-04-11T13:52:14.641Z,61.77
2023-04-11T13:54:41.407Z,60.58
2023-04-11T13:57:08.289Z,62.58
2023-04-11T13:59:35.630Z,61.18
2023-04-11T14:02:02.514Z,59.86
2023-04-11T14:04:29.697Z,62.44
2023-04-11T14:06:56.487Z,62.23
2023-04-11T14:09:23.207Z,62.09
2023-04-11T14:11:50.290Z,61.83
2023-04-11T14:14:17.031Z,61.67
2023-04-11T14:16:44.298Z,62.59
2023-04-11T14:19:11.230Z,62.13
2023-04-11T14:21:38.194Z,62.77
2023-04-11T14:24:05.234Z,62.21
2023-04-11T14:26:32.097Z,62.21
2023-04-11T14:29:04.260Z,62.82
2023-04-11T14:31:31.115Z,64.59
2023-04-11T14:33:58.050Z,65.63
2023-04-11T14:36:24.835Z,64.97
2023-04-11T14:38:51.937Z,66.34
2023-04-11T14:41:19.524Z,64.93
2023-04-11T14:43:46.339Z,65.04
2023-04-11T14:46:13.411Z,64.60
2023-04-11T14:48:42.354Z,63.57
2023-04-11T14:51:09.215Z,60.97
2023-04-11T14:53:36.011Z,62.45
2023-04-11T14:56:07.010Z,60.45
2023-04-11T14:58:36.034Z,60.79
2023-04-11T15:01:02.918Z,59.68
2023-04-11T15:03:30.039Z,57.98
2023-04-11T15:05:57.399Z,58.13
2023-04-11T15:08:24.108Z,58.49
2023-04-11T15:10:51.233Z,57.30
2023-04-11T15:13:18.334Z,56.21
2023-04-11T15:15:45.322Z,56.26
2023-04-11T15:18:26.407Z,55.43
2023-04-11T15:20:53.155Z,55.32
2023-04-11T15:23:21.543Z,55.41
2023-04-11T15:25:55.670Z,54.39
2023-04-11T15:28:23.024Z,55.36
2023-04-11T15:30:52.008Z,53.40
2023-04-11T15:33:19.382Z,53.46
2023-04-11T15:35:46.417Z,53.67
2023-04-11T15:38:14.014Z,54.03
2023-04-11T15:40:40.708Z,53.88
2023-04-11T15:43:08.460Z,55.17
2023-04-11T15:45:36.968Z,54.83
2023-04-11T15:48:03.916Z,53.02
2023-04-11T15:50:33.644Z,53.62
2023-04-11T15:53:00.391Z,54.80
2023-04-11T15:55:27.685Z,51.53
2023-04-11T15:57:56.117Z,52.13
2023-04-11T16:00:28.354Z,51.59
2023-04-11T16:02:55.394Z,53.17
2023-04-11T16:09:17.338Z,52.69
2023-04-11T16:11:44.557Z,53.75
2023-04-11T16:14:11.306Z,54.49
2023-04-11T16:16:38.838Z,53.79
2023-04-11T16:19:06.029Z,54.19
2023-04-11T16:21:32.764Z,54.26
2023-04-11T16:23:59.606Z,55.04
2023-04-11T16:26:26.382Z,55.15
2023-04-11T16:28:53.082Z,56.42
2023-04-11T16:31:20.185Z,55.43
2023-04-11T16:33:47.389Z,55.73
2023-04-11T16:36:14.659Z,53.49
2023-04-11T16:38:41.431Z,55.31
2023-04-11T16:41:08.646Z,54.93
2023-04-11T16:43:35.442Z,55.86
2023-04-11T16:46:03.581Z,56.26
2023-04-11T16:48:33.451Z,55.76
2023-04-11T16:51:00.505Z,55.88
2023-04-11T16:53:27.435Z,55.04
2023-04-11T16:55:56.360Z,53.94
2023-04-11T16:58:23.197Z,55.54
2023-04-11T17:00:50.460Z,55.73
2023-04-11T17:03:17.401Z,55.00
2023-04-11T17:06:02.718Z,54.78
2023-04-11T17:08:29.433Z,55.42
2023-04-11T17:11:04.737Z,56.10
2023-04-11T17:13:33.115Z,56.98
2023-04-11T17:15:59.902Z,57.10
2023-04-11T17:18:26.647Z,56.45
2023-04-11T17:20:53.787Z,56.61
2023-04-11T17:23:31.999Z,57.36
2023-04-11T17:29:48.305Z,57.71
2023-04-11T17:32:15.151Z,58.67
2023-04-11T17:34:41.884Z,58.20
2023-04-11T17:37:08.843Z,58.30
2023-04-11T17:39:36.104Z,58.51
2023-04-11T17:42:02.980Z,58.01
2023-04-11T17:44:30.011Z,58.07
2023-04-11T17:46:56.819Z,57.13
2023-04-11T17:49:23.605Z,58.73
2023-04-11T17:51:59.064Z,57.43
2023-04-11T17:54:26.501Z,58.70
2023-04-11T17:56:53.653Z,58.65
2023-04-11T17:59:20.504Z,58.34
2023-04-11T18:01:47.399Z,57.13
2023-04-11T18:04:15.726Z,58.54
2023-04-11T18:06:42.826Z,58.06
2023-04-11T18:09:52.710Z,59.93
2023-04-11T18:12:19.505Z,60.29
2023-04-11T18:14:56.844Z,58.71
2023-04-11T18:17:23.606Z,59.83
2023-04-11T18:19:50.392Z,60.68
2023-04-11T18:22:17.127Z,59.68
2023-04-11T18:24:44.269Z,59.89
2023-04-11T18:27:12.300Z,60.68
2023-04-11T18:29:39.098Z,61.06
2023-04-11T18:32:05.845Z,59.21
2023-04-11T18:34:32.648Z,57.18
2023-04-11T18:36:59.375Z,57.99
2023-04-11T18:39:26.177Z,58.73
2023-04-11T18:41:52.982Z,56.92
2023-04-11T18:44:20.068Z,61.30
2023-04-11T18:46:48.809Z,63.82
2023-04-11T18:49:18.058Z,65.33
2023-04-11T18:51:45.292Z,65.55
2023-04-11T18:54:12.404Z,63.07
2023-04-11T19:00:32.848Z,64.71
2023-04-11T19:03:00.048Z,62.11
2023-04-11T19:05:27.992Z,60.59
2023-04-11T19:07:55.007Z,59.80
2023-04-11T19:10:22.065Z,60.34
2023-04-11T19:12:48.787Z,62.43
2023-04-11T19:15:16.599Z,60.54
2023-04-11T19:17:43.386Z,59.76
2023-04-11T19:20:10.375Z,59.64
2023-04-11T19:22:37.803Z,60.47
2023-04-11T19:25:04.650Z,63.90
2023-04-11T19:27:31.933Z,61.34
2023-04-11T19:30:24.403Z,62.76
2023-04-11T19:32:51.510Z,62.97
2023-04-11T19:35:18.789Z,63.94
2023-04-11T19:37:45.539Z,65.93
2023-04-11T19:40:13.060Z,64.97
2023-04-11T19:42:39.776Z,64.78
2023-04-11T19:45:44.398Z,66.40
2023-04-11T19:48:11.294Z,69.63
2023-04-11T19:50:40.999Z,69.46
2023-04-11T19:53:07.711Z,69.20
2023-04-11T19:55:35.759Z,69.78
2023-04-11T19:58:02.447Z,69.03
2023-04-11T20:00:29.154Z,69.91
2023-04-11T20:02:57.019Z,70.15
2023-04-11T20:05:24.285Z,72.70
2023-04-11T20:07:51.627Z,74.73
2023-04-11T20:10:18.324Z,72.70
2023-04-11T20:12:45.082Z,73.36
2023-04-11T20:15:11.919Z,72.25
2023-04-11T20:17:38.800Z,70.00
2023-04-11T20:20:06.103Z,69.64
2023-04-11T20:22:32.949Z,68.04
2023-04-11T20:25:01.160Z,68.64
2023-04-11T20:27:27.950Z,68.65
2023-04-11T20:29:54.656Z,68.39
2023-04-11T20:32:21.339Z,68.55
2023-04-11T20:34:48.458Z,68.84
2023-04-11T20:37:16.963Z,68.52
2023-04-11T20:39:45.253Z,69.35
2023-04-11T20:42:12.399Z,70.32
2023-04-11T20:44:39.560Z,68.36
2023-04-11T20:47:09.041Z,67.74
2023-04-11T20:49:37.394Z,70.71
2023-04-11T20:52:04.141Z,70.58
2023-04-11T20:54:30.928Z,71.34
2023-04-11T20:56:59.213Z,72.07
2023-04-11T20:59:26.142Z,73.24
2023-04-11T21:01:53.073Z,73.36
2023-04-11T21:04:20.915Z,72.99
2023-04-11T21:06:47.666Z,73.25
2023-04-11T21:09:14.354Z,72.65
2023-04-11T21:11:41.045Z,71.78
2023-04-11T21:14:07.721Z,72.30
2023-04-11T21:16:34.588Z,72.65
2023-04-11T21:19:01.379Z,72.70
2023-04-11T21:21:28.134Z,73.33
2023-04-11T21:23:55.082Z,73.67
2023-04-11T21:26:23.473Z,73.53
2023-04-11T21:28:50.347Z,72.20
2023-04-11T21:31:17.128Z,70.96
2023-04-11T21:33:45.884Z,71.95
2023-04-11T21:36:12.589Z,71.46
2023-04-11T21:38:39.328Z,72.93
2023-04-11T21:41:07.240Z,71.90
2023-04-11T21:43:34.301Z,71.50
2023-04-11T21:46:01.151Z,72.96
2023-04-11T21:48:27.841Z,72.96
2023-04-11T21:50:54.600Z,72.58
2023-04-11T21:53:21.285Z,71.82
2023-04-11T21:55:48.376Z,69.78
2023-04-11T21:58:26.205Z,69.04
2023-04-11T22:00:55.618Z,66.62
2023-04-11T22:03:22.996Z,67.19
2023-04-11T22:05:50.403Z,65.59
2023-04-11T22:08:17.303Z,68.04
2023-04-11T22:10:47.634Z,71.34
2023-04-11T22:13:18.519Z,70.13
2023-04-11T22:15:45.620Z,69.50
2023-04-11T22:18:13.014Z,68.21
2023-04-11T22:20:41.502Z,69.10
2023-04-11T22:23:08.653Z,69.78
2023-04-11T22:25:36.916Z,66.79
2023-04-11T22:28:04.130Z,68.67
2023-04-11T22:30:30.847Z,69.08
2023-04-11T22:32:57.761Z,71.04
2023-04-11T22:35:24.569Z,72.51
2023-04-11T22:37:51.326Z,72.64
2023-04-11T22:40:18.907Z,73.19
2023-04-11T22:42:45.662Z,72.68
2023-04-11T22:45:12.376Z,69.55
2023-04-11T22:47:39.158Z,66.80
2023-04-11T22:50:06.150Z,66.99
2023-04-11T22:52:33.388Z,66.60
2023-04-11T22:55:00.112Z,68.05
2023-04-11T22:57:26.834Z,69.54
2023-04-11T22:59:53.876Z,69.57
2023-04-11T23:02:21.141Z,70.15
2023-04-11T23:04:48.867Z,70.98
2023-04-11T23:07:15.903Z,71.97
2023-04-11T23:09:42.696Z,71.80
2023-04-11T23:12:09.598Z,71.00
2023-04-11T23:14:36.292Z,69.63
2023-04-11T23:17:03.247Z,69.72
2023-04-11T23:19:30.419Z,69.48
2023-04-11T23:21:57.111Z,69.21
2023-04-11T23:24:24.196Z,70.27
2023-04-11T23:26:50.953Z,69.45
2023-04-11T23:29:17.669Z,66.87
2023-04-11T23:31:44.327Z,68.63
2023-04-11T23:34:11.255Z,70.61
2023-04-11T23:36:37.944Z,70.17
2023-04-11T23:39:04.783Z,71.83
2023-04-11T23:41:32.244Z,68.88
2023-04-11T23:44:00.006Z,68.97
2023-04-11T23:46:32.110Z,68.23
2023-04-11T23:48:59.385Z,67.16
2023-04-11T23:51:26.089Z,66.34
2023-04-11T23:53:52.846Z,65.85
2023-04-11T23:56:19.794Z,63.89
2023-04-11T23:58:46.821Z,65.52
